DW5254 Weather Reports


time (UTC)temp
C
wind
direction
speed
KPH
gust
KPH
rain 1hr
cm
rain 24hr
cm
rain mn
cm
humidity
%
barometer
mb
20260510174546 18 32 6.4 16.1 0.00 0.23 0.23 52 1018.3
20260510173054 19 39 3.2 17.7 0.00 0.23 0.23 51 1018.5
20260510171551 18 39 12.9 19.3 0.00 0.23 0.23 59 1018.6
20260510170142 18 20 11.3 19.3 0.00 0.23 0.23 57 1018.8
20260510164546 18 51 16.1 20.9 0.00 0.23 0.23 53 1018.8
20260510163039 18 38 6.4 14.5 0.00 0.23 0.23 53 1018.7
20260510161535 17 39 8.0 19.3 0.00 0.23 0.23 55 1018.4
20260510160035 17 17 9.7 16.1 0.00 0.23 0.23 65 1018.4
20260510154528 17 4 6.4 16.1 0.00 0.23 0.23 68 1018.1
20260510153036 17 28 9.7 19.3 0.00 0.23 0.23 64 1018.1
20260510151526 17 29 8.0 17.7 0.00 0.23 0.23 65 1017.8
20260510150024 16 44 11.3 19.3 0.00 0.23 0.23 65 1017.5
20260510144528 16 49 12.9 20.9 0.00 0.23 0.23 66 1017.5
20260510143031 16 25 9.7 20.9 0.00 0.23 0.23 66 1017.5
20260510141521 16 45 11.3 17.7 0.00 0.23 0.23 66 1017.4
20260510140019 15 28 11.3 16.1 0.00 0.23 0.23 68 1017.5
20260510134517 15 32 12.9 17.7 0.00 0.23 0.23 67 1017.4
20260510133032 15 38 9.7 16.1 0.00 0.23 0.23 68 1017.1
20260510131513 15 13 8.0 14.5 0.00 0.23 0.23 72 1017.0
20260510130010 14 28 6.4 12.9 0.00 0.23 0.23 74 1016.6
20260510124509 13 23 4.8 11.3 0.00 0.23 0.23 76 1016.2
20260510123008 13 6 4.8 9.7 0.00 0.23 0.23 79 1016.2
20260510121505 13 358 3.2 6.4 0.00 0.23 0.23 80 1016.1
20260510120003 12 354 1.6 4.8 0.00 0.23 0.23 82 1015.6
20260510114604 12 338 3.2 4.8 0.00 0.23 0.23 82 1015.3
20260510113056 12 344 3.2 11.3 0.00 0.23 0.23 83 1014.9
20260510111600 12 348 4.8 8.0 0.00 0.23 0.23 83 1014.8
20260510110051 12 313 4.8 11.3 0.00 0.23 0.23 84 1014.3
20260510104548 12 339 6.4 11.3 0.00 0.23 0.23 85 1014.0
20260510103045 12 324 6.4 9.7 0.03 0.23 0.23 85 1013.6
20260510101544 12 314 3.2 6.4 0.03 0.23 0.23 86 1013.3
20260510100042 12 307 1.6 8.0 0.03 0.23 0.23 87 1013.1
20260510094543 12 310 4.8 8.0 0.03 0.23 0.23 87 1012.6
20260510093040 12 329 0.0 3.2 0.00 0.20 0.20 90 1012.5
20260510091539 12 329 0.0 1.6 0.00 0.20 0.20 91 1012.4
20260510090037 12 329 0.0 1.6 0.00 0.20 0.20 89 1012.0
20260510084535 12 331 0.0 4.8 0.00 0.20 0.20 90 1011.9
20260510083036 13 319 4.8 9.7 0.00 0.20 0.20 91 1011.8
20260510081541 12 356 1.6 4.8 0.00 0.20 0.20 91 1011.5
20260510080032 13 358 0.0 0.0 0.00 0.20 0.20 90 1011.4
20260510074528 13 358 0.0 3.2 0.00 0.20 0.20 89 1011.5
20260510073032 13 1 1.6 3.2 0.05 0.20 0.20 88 1011.5
20260510071525 14 1 0.0 4.8 0.10 0.20 0.20 86 1011.6
20260510070023 14 335 4.8 9.7 0.10 0.20 0.20 85 1012.1
20260510064520 15 343 6.4 12.9 0.15 0.23 0.20 84 1012.5
20260510063025 15 309 11.3 19.3 0.15 0.18 0.15 83 1012.8
20260510061520 15 300 11.3 17.7 0.10 0.13 0.10 87 1013.2
20260510060019 15 302 12.9 24.1 0.10 0.13 0.10 86 1012.9
20260510054513 16 298 12.9 24.1 0.05 0.41 0.05 82 1012.7
20260510053011 16 312 9.7 32.2 0.00 0.36 0.00 78 1012.4
20260510051502 17 236 4.8 12.9 0.00 0.36 0.00 76 1011.0
20260510050059 16 174 1.6 4.8 0.00 0.36 0.00 76 1010.1
20260510044558 17 226 0.0 0.0 0.00 0.64 0.36 75 1010.0
20260510043108 17 226 0.0 0.0 0.00 0.64 0.36 74 1010.1
20260510041558 17 226 0.0 3.2 0.00 0.64 0.36 73 1010.1
20260510040110 17 310 0.0 0.0 0.00 0.64 0.36 73 1010.0
20260510034600 16 310 0.0 0.0 0.00 0.97 0.36 74 1009.9
20260510033056 17 310 0.0 0.0 0.00 0.97 0.36 72 1010.1
20260510031559 17 310 0.0 1.6 0.00 0.97 0.36 72 1010.0
20260510030054 17 310 0.0 0.0 0.00 0.97 0.36 72 1010.0
20260510024553 17 305 0.0 0.0 0.00 1.12 0.36 73 1009.9
20260510023053 17 305 0.0 0.0 0.00 1.12 0.36 72 1010.0
20260510021551 17 305 0.0 0.0 0.00 1.12 0.36 72 1009.7
20260510020050 17 306 0.0 0.0 0.00 1.12 0.36 72 1009.4
20260510014549 18 306 0.0 0.0 0.00 1.32 0.36 70 1009.1
20260510013049 18 306 0.0 0.0 0.00 1.32 0.36 69 1009.0
20260510011548 20 305 0.0 0.0 0.00 1.32 0.36 66 1008.7
20260510010048 20 306 0.0 1.6 0.00 1.32 0.36 64 1008.5
20260510004546 21 306 0.0 0.0 0.00 1.35 0.36 62 1008.5
20260510003049 22 306 0.0 1.6 0.00 1.35 0.36 61 1008.2
20260510001551 23 305 0.0 6.4 0.00 1.35 0.36 59 1008.2
20260510000046 23 309 3.2 11.3 0.00 1.35 0.36 58 1008.0
20260509234546 23 307 6.4 14.5 0.00 1.35 0.36 55 1007.9
20260509233050 23 312 6.4 12.9 0.00 1.35 0.36 57 1008.0
20260509231545 23 307 11.3 22.5 0.00 1.35 0.36 54 1007.9
20260509230043 23 303 11.3 19.3 0.00 1.35 0.36 55 1007.7
20260509224553 24 309 6.4 20.9 0.00 1.37 0.36 50 1007.7
20260509223041 24 302 11.3 20.9 0.00 1.37 0.36 51 1007.7
20260509221556 24 307 11.3 20.9 0.00 1.37 0.36 54 1007.7
20260509220039 24 305 12.9 24.1 0.00 1.37 0.36 52 1007.6
20260509214537 24 303 8.0 24.1 0.00 1.37 0.36 55 1007.5
20260509213036 23 317 12.9 19.3 0.00 1.37 0.36 60 1007.6
20260509211532 25 58 1.6 11.3 0.00 1.37 0.36 66 1007.7
20260509210033 23 244 3.2 19.3 0.00 1.37 0.36 66 1007.6
20260509204530 24 218 4.8 16.1 0.00 1.37 0.36 66 1007.7
20260509203028 24 152 1.6 14.5 0.00 1.37 0.36 68 1007.7
20260509201528 23 315 9.7 24.1 0.00 1.37 0.36 66 1007.9
20260509200025 23 169 6.4 16.1 0.00 1.37 0.36 66 1007.9
20260509194623 23 186 3.2 19.3 0.00 1.37 0.36 67 1008.1
20260509193021 23 304 3.2 27.4 0.00 1.37 0.36 67 1008.1
20260509191520 23 240 6.4 22.5 0.00 1.37 0.36 67 1008.2
20260509190019 22 314 4.8 17.7 0.00 1.37 0.36 67 1008.3
20260509184522 22 176 4.8 17.7 0.00 1.37 0.36 67 1008.3
20260509183015 21 281 8.0 19.3 0.00 1.37 0.36 69 1008.2
20260509181509 21 81 8.0 27.4 0.00 1.37 0.36 69 1008.2
20260509180007 21 136 9.7 22.5 0.00 1.37 0.36 71 1008.3